Time;durP1;ratioP1;P1;durP2;ratioP2;P2;SDS_P1;SDS_P2;PMS_P1;PMS_P2;Temp;Humidity;BMP_temperature;BMP_pressure;BME280_temperature;BME280_humidity;BME280_pressure;Samples;Min_cycle;Max_cycle;Signal;HPM_P1;HPM_P2
2021/04/07 00:02:05;;;;;;;10.40;7.97;;;0.70;99.90;;;;;;3577389;39;20247;-75
2021/04/07 00:04:30;;;;;;;14.53;8.20;;;0.70;99.90;;;;;;3559447;40;20570;-75
2021/04/07 00:06:56;;;;;;;17.30;10.07;;;0.80;99.90;;;;;;3576891;39;20441;-75
2021/04/07 00:09:24;;;;;;;17.03;7.50;;;0.80;99.90;;;;;;3577576;40;20265;-75
2021/04/07 00:11:50;;;;;;;14.63;9.10;;;0.80;99.90;;;;;;3561115;39;20386;-75
2021/04/07 00:14:16;;;;;;;12.63;8.03;;;0.80;99.90;;;;;;3571355;40;20436;-75
2021/04/07 00:16:41;;;;;;;12.27;8.70;;;0.80;99.90;;;;;;3559587;39;20249;-75
2021/04/07 00:19:07;;;;;;;15.90;7.20;;;0.80;99.90;;;;;;3578037;39;20245;-75
2021/04/07 00:21:34;;;;;;;9.20;6.90;;;0.80;99.90;;;;;;3568240;39;20258;-74
2021/04/07 00:23:59;;;;;;;10.50;6.90;;;0.80;99.90;;;;;;3568619;40;20834;-74
2021/04/07 00:26:25;;;;;;;5.67;3.97;;;0.80;99.90;;;;;;3577462;40;20440;-75
2021/04/07 00:28:51;;;;;;;12.47;8.10;;;0.70;99.90;;;;;;3574801;39;20237;-74
2021/04/07 00:31:16;;;;;;;7.40;5.83;;;0.70;99.90;;;;;;3576246;40;20725;-74
2021/04/07 00:33:42;;;;;;;21.10;6.53;;;0.70;99.90;;;;;;3567934;40;20230;-74
2021/04/07 00:36:07;;;;;;;15.00;7.27;;;0.70;99.90;;;;;;3560075;40;20225;-74
2021/04/07 00:38:34;;;;;;;10.17;6.37;;;0.70;99.90;;;;;;3566458;40;20233;-74
2021/04/07 00:41:00;;;;;;;10.07;6.33;;;0.70;99.90;;;;;;3557735;39;20527;-75
2021/04/07 00:43:26;;;;;;;13.20;6.20;;;0.70;99.90;;;;;;3568386;40;20392;-75
2021/04/07 00:45:52;;;;;;;9.03;5.93;;;0.70;99.90;;;;;;3567810;40;20465;-75
2021/04/07 00:48:18;;;;;;;5.47;3.33;;;0.70;99.90;;;;;;3576755;39;20258;-75
2021/04/07 00:50:44;;;;;;;9.40;5.40;;;0.70;99.90;;;;;;3560240;40;20237;-75
2021/04/07 00:53:09;;;;;;;4.83;3.40;;;0.70;99.90;;;;;;3575136;39;20436;-75
2021/04/07 00:55:44;;;;;;;12.43;6.03;;;0.70;99.90;;;;;;3577446;40;20230;-75
2021/04/07 00:58:09;;;;;;;13.13;6.50;;;0.70;99.90;;;;;;3577456;40;20240;-75
2021/04/07 01:00:35;;;;;;;5.70;3.43;;;0.70;99.90;;;;;;3566382;40;20448;-75
2021/04/07 01:03:03;;;;;;;8.57;4.60;;;0.70;99.90;;;;;;3577408;40;20244;-75
2021/04/07 01:05:30;;;;;;;6.83;5.00;;;0.60;99.90;;;;;;3566065;40;20410;-75
2021/04/07 01:07:57;;;;;;;4.50;3.17;;;0.60;99.90;;;;;;3577245;39;20428;-75
2021/04/07 01:10:23;;;;;;;3.67;3.37;;;0.50;99.90;;;;;;3576889;40;22018;-75
2021/04/07 01:12:50;;;;;;;12.83;6.37;;;0.50;99.90;;;;;;3577942;40;20453;-75
2021/04/07 01:15:16;;;;;;;6.50;4.50;;;0.50;99.90;;;;;;3567255;40;20433;-75
2021/04/07 01:17:43;;;;;;;9.70;4.90;;;0.50;99.90;;;;;;3558618;40;21316;-75
2021/04/07 01:20:18;;;;;;;6.80;4.70;;;0.40;99.90;;;;;;3575558;40;20540;-75
2021/04/07 01:22:48;;;;;;;6.70;4.37;;;0.50;99.90;;;;;;3577537;39;20415;-75
2021/04/07 01:25:14;;;;;;;9.30;6.73;;;0.50;99.90;;;;;;3561064;40;20466;-75
2021/04/07 01:27:40;;;;;;;8.50;5.10;;;0.60;99.90;;;;;;3572915;40;20805;-75
2021/04/07 01:30:12;;;;;;;4.70;4.30;;;0.60;99.90;;;;;;3577485;39;20393;-75
2021/04/07 01:32:38;;;;;;;17.03;6.40;;;0.70;99.90;;;;;;3576476;39;21115;-75
2021/04/07 01:35:06;;;;;;;14.47;9.10;;;0.50;99.90;;;;;;3569017;40;20412;-75
2021/04/07 01:37:36;;;;;;;11.00;7.27;;;0.60;99.90;;;;;;3559852;40;20514;-75
2021/04/07 01:40:04;;;;;;;11.83;5.90;;;0.60;99.90;;;;;;3578408;40;21248;-75
2021/04/07 01:42:31;;;;;;;15.83;8.20;;;0.60;99.90;;;;;;3579587;40;20441;-75
2021/04/07 01:45:01;;;;;;;15.40;11.20;;;0.60;99.90;;;;;;3578514;39;20420;-75
2021/04/07 01:47:28;;;;;;;25.53;12.10;;;0.70;99.90;;;;;;3569139;40;20429;-75
2021/04/07 01:49:55;;;;;;;13.93;8.00;;;0.60;99.90;;;;;;3572282;40;20730;-75
2021/04/07 01:52:21;;;;;;;17.70;10.03;;;0.60;99.90;;;;;;3578916;40;20502;-75
2021/04/07 01:54:46;;;;;;;22.40;13.10;;;0.60;99.90;;;;;;3579449;39;20391;-75
2021/04/07 01:57:12;;;;;;;22.83;11.33;;;0.60;99.90;;;;;;3569751;40;20318;-75
2021/04/07 01:59:38;;;;;;;14.83;10.03;;;0.60;99.90;;;;;;3578499;40;20249;-75
2021/04/07 02:02:03;;;;;;;19.20;10.80;;;0.60;99.90;;;;;;3561404;40;20259;-75
2021/04/07 02:04:29;;;;;;;23.17;9.67;;;0.60;99.90;;;;;;3568858;40;20221;-75
2021/04/07 02:06:57;;;;;;;13.87;8.93;;;0.50;99.90;;;;;;3577907;40;20245;-75
2021/04/07 02:09:23;;;;;;;5.60;4.97;;;0.50;99.90;;;;;;3578289;39;20864;-74
2021/04/07 02:11:53;;;;;;;11.93;6.33;;;0.60;99.90;;;;;;3572345;40;20433;-74
2021/04/07 02:14:22;;;;;;;10.17;7.40;;;0.60;99.90;;;;;;3578915;40;20399;-75
2021/04/07 02:16:52;;;;;;;12.47;8.63;;;0.60;99.90;;;;;;3569505;40;20444;-75
2021/04/07 02:19:18;;;;;;;8.73;7.33;;;0.60;99.90;;;;;;3578091;40;20809;-75
2021/04/07 02:21:44;;;;;;;8.93;6.90;;;0.60;99.90;;;;;;3568938;40;20387;-75
2021/04/07 02:24:10;;;;;;;16.60;10.63;;;0.70;99.90;;;;;;3578513;40;20442;-75
2021/04/07 02:26:35;;;;;;;14.20;9.43;;;0.70;99.90;;;;;;3569065;40;20249;-75
2021/04/07 02:29:01;;;;;;;13.97;9.07;;;0.70;99.90;;;;;;3576253;40;20411;-75
2021/04/07 02:31:26;;;;;;;11.57;8.77;;;0.70;99.90;;;;;;3567945;40;20597;-75
2021/04/07 02:33:52;;;;;;;10.33;8.20;;;0.70;99.90;;;;;;3577241;39;20238;-75
2021/04/07 02:36:18;;;;;;;13.53;8.80;;;0.70;99.90;;;;;;3568589;40;20585;-74
2021/04/07 02:38:43;;;;;;;11.27;7.70;;;0.70;99.90;;;;;;3569020;40;20715;-74
2021/04/07 02:41:09;;;;;;;8.37;6.70;;;0.70;99.90;;;;;;3569006;40;20294;-74
2021/04/07 02:43:35;;;;;;;11.10;7.60;;;0.70;99.90;;;;;;3577013;40;20542;-74
2021/04/07 02:46:00;;;;;;;20.90;10.63;;;0.60;99.90;;;;;;3560126;40;20505;-74
2021/04/07 02:48:26;;;;;;;16.03;9.73;;;0.70;99.90;;;;;;3569456;40;20694;-74
2021/04/07 02:50:52;;;;;;;13.20;8.87;;;0.70;99.90;;;;;;3578620;40;20226;-74
2021/04/07 02:53:18;;;;;;;17.83;10.23;;;0.70;99.90;;;;;;3578719;40;20834;-75
2021/04/07 02:55:44;;;;;;;16.83;10.30;;;0.60;99.90;;;;;;3577912;40;21206;-76
2021/04/07 02:58:09;;;;;;;12.70;9.23;;;0.60;99.90;;;;;;3576101;39;20745;-74
2021/04/07 03:00:35;;;;;;;17.90;13.80;;;0.60;99.90;;;;;;3576473;39;20295;-74
2021/04/07 03:03:01;;;;;;;13.00;9.20;;;0.60;99.90;;;;;;3576138;39;20241;-74
2021/04/07 03:05:27;;;;;;;6.80;5.40;;;0.60;99.90;;;;;;3577418;40;20285;-74
2021/04/07 03:07:52;;;;;;;18.13;8.20;;;0.60;99.90;;;;;;3577937;40;20498;-74
2021/04/07 03:10:18;;;;;;;14.93;8.00;;;0.60;99.90;;;;;;3577721;39;20400;-74
2021/04/07 03:12:44;;;;;;;6.80;4.60;;;0.70;99.90;;;;;;3575220;39;20234;-75
2021/04/07 03:15:10;;;;;;;21.07;10.67;;;0.70;99.90;;;;;;3577510;40;20237;-74
2021/04/07 03:17:39;;;;;;;11.00;9.57;;;0.70;99.90;;;;;;3577830;39;20238;-75
2021/04/07 03:20:07;;;;;;;8.70;6.60;;;0.70;99.90;;;;;;3577563;39;20380;-75
2021/04/07 03:22:33;;;;;;;10.30;8.10;;;0.70;99.90;;;;;;3569672;40;20683;-75
2021/04/07 03:24:59;;;;;;;11.53;9.10;;;0.70;99.90;;;;;;3578091;40;20701;-75
2021/04/07 03:27:25;;;;;;;18.00;11.47;;;0.70;99.90;;;;;;3576952;39;20507;-75
2021/04/07 03:29:52;;;;;;;16.37;11.17;;;0.70;99.90;;;;;;3577373;39;20601;-75
2021/04/07 03:32:18;;;;;;;16.97;12.23;;;0.80;99.90;;;;;;3568114;40;20825;-75
2021/04/07 03:34:44;;;;;;;13.57;8.67;;;0.80;99.90;;;;;;3577034;39;20383;-75
2021/04/07 03:37:09;;;;;;;15.67;9.53;;;0.80;99.90;;;;;;3578303;39;20385;-75
2021/04/07 03:39:35;;;;;;;8.20;7.10;;;0.80;99.90;;;;;;3577696;40;20245;-74
2021/04/07 03:42:00;;;;;;;17.67;11.30;;;0.80;99.90;;;;;;3576671;39;20213;-75
2021/04/07 03:44:26;;;;;;;11.47;8.17;;;0.80;99.90;;;;;;3577484;39;20249;-75
2021/04/07 03:46:55;;;;;;;11.90;6.63;;;0.80;99.90;;;;;;3576484;40;20229;-75
2021/04/07 03:49:21;;;;;;;12.70;9.10;;;0.80;99.90;;;;;;3568862;40;20311;-75
2021/04/07 03:51:47;;;;;;;12.13;8.77;;;0.80;99.90;;;;;;3578264;40;20451;-75
2021/04/07 03:54:13;;;;;;;6.67;5.83;;;0.80;99.90;;;;;;3568370;40;20301;-75
2021/04/07 03:56:39;;;;;;;8.70;6.77;;;0.90;99.90;;;;;;3577597;40;20775;-75
2021/04/07 03:59:05;;;;;;;17.10;9.17;;;0.90;99.90;;;;;;3575922;39;20444;-75
2021/04/07 04:01:31;;;;;;;12.17;9.37;;;0.90;99.90;;;;;;3576038;39;20339;-76
2021/04/07 04:03:57;;;;;;;12.60;10.20;;;1.00;99.90;;;;;;3569549;40;20666;-74
2021/04/07 04:06:23;;;;;;;14.40;10.60;;;0.80;99.90;;;;;;3569469;40;20474;-75
2021/04/07 04:08:48;;;;;;;10.73;7.60;;;1.20;99.90;;;;;;3576288;40;20234;-75
2021/04/07 04:11:14;;;;;;;21.00;12.97;;;1.00;99.90;;;;;;3575989;39;20346;-75
2021/04/07 04:13:40;;;;;;;19.07;12.00;;;1.00;99.90;;;;;;3578044;39;20746;-76
2021/04/07 04:16:05;;;;;;;9.43;7.70;;;1.00;99.90;;;;;;3567931;39;20234;-74
2021/04/07 04:18:31;;;;;;;13.53;9.53;;;0.90;99.90;;;;;;3578183;39;20258;-75
2021/04/07 04:20:57;;;;;;;26.77;12.37;;;0.80;99.90;;;;;;3576521;40;20229;-75
2021/04/07 04:23:22;;;;;;;17.30;13.30;;;0.80;99.90;;;;;;3577423;40;20324;-75
2021/04/07 04:25:48;;;;;;;15.73;8.30;;;0.80;99.90;;;;;;3568318;40;20222;-75
2021/04/07 04:28:14;;;;;;;18.70;14.03;;;0.90;99.90;;;;;;3561929;40;20238;-74
2021/04/07 04:30:39;;;;;;;18.10;13.03;;;0.90;99.90;;;;;;3567087;40;20226;-74
2021/04/07 04:33:05;;;;;;;25.23;12.77;;;0.90;99.90;;;;;;3559767;40;20272;-74
2021/04/07 04:35:31;;;;;;;19.27;11.97;;;0.90;99.90;;;;;;3567591;40;20220;-75
2021/04/07 04:37:56;;;;;;;14.30;8.90;;;1.00;99.90;;;;;;3560241;40;20241;-75
2021/04/07 04:40:22;;;;;;;21.80;12.63;;;1.00;99.90;;;;;;3577088;39;20295;-74
2021/04/07 04:42:48;;;;;;;19.00;12.60;;;1.00;99.90;;;;;;3577881;40;20320;-74
2021/04/07 04:45:15;;;;;;;10.20;5.23;;;1.00;99.90;;;;;;3567581;40;20245;-74
2021/04/07 04:47:40;;;;;;;15.53;10.50;;;1.00;99.90;;;;;;3578060;40;21147;-74
2021/04/07 04:50:08;;;;;;;17.33;9.53;;;1.10;99.90;;;;;;3577574;39;20421;-74
2021/04/07 04:52:34;;;;;;;9.40;6.50;;;1.10;99.90;;;;;;3568839;40;20281;-74
2021/04/07 04:55:00;;;;;;;9.07;7.40;;;1.10;99.90;;;;;;3566462;40;20360;-74
2021/04/07 04:57:26;;;;;;;24.27;11.77;;;1.10;99.90;;;;;;3559431;40;20459;-74
2021/04/07 04:59:51;;;;;;;16.30;9.47;;;1.00;99.90;;;;;;3575778;40;20240;-74
2021/04/07 05:02:17;;;;;;;14.70;9.70;;;0.90;99.90;;;;;;3576503;39;20226;-75
2021/04/07 05:04:43;;;;;;;17.10;9.93;;;0.80;99.90;;;;;;3578155;39;20802;-74
2021/04/07 05:07:08;;;;;;;16.90;12.83;;;0.80;99.90;;;;;;3568606;40;20229;-75
2021/04/07 05:09:34;;;;;;;27.30;15.00;;;0.80;99.90;;;;;;3575361;39;20530;-74
2021/04/07 05:12:00;;;;;;;23.33;12.53;;;0.80;99.90;;;;;;3576766;40;20564;-74
2021/04/07 05:14:26;;;;;;;19.53;12.50;;;0.70;99.90;;;;;;3568899;40;20725;-74
2021/04/07 05:16:52;;;;;;;18.00;9.30;;;0.70;99.90;;;;;;3567340;40;20441;-76
2021/04/07 05:19:18;;;;;;;18.17;10.63;;;0.70;99.90;;;;;;3575148;39;20254;-74
2021/04/07 05:21:44;;;;;;;19.40;12.43;;;0.80;99.90;;;;;;3564837;40;20407;-74
2021/04/07 05:24:10;;;;;;;14.80;9.80;;;0.80;99.90;;;;;;3569630;40;20396;-75
2021/04/07 05:26:36;;;;;;;16.23;10.87;;;0.90;99.90;;;;;;3567729;40;20414;-75
2021/04/07 05:29:03;;;;;;;12.63;9.63;;;0.80;99.90;;;;;;3558991;40;20625;-74
2021/04/07 05:31:29;;;;;;;19.93;11.00;;;0.90;99.90;;;;;;3561447;40;20250;-74
2021/04/07 05:33:55;;;;;;;11.57;8.07;;;0.90;99.90;;;;;;3563887;40;20449;-74
2021/04/07 05:36:20;;;;;;;21.00;11.97;;;0.80;99.90;;;;;;3562892;40;20249;-75
2021/04/07 05:38:46;;;;;;;16.30;11.97;;;0.90;99.90;;;;;;3565712;40;20254;-74
2021/04/07 05:41:12;;;;;;;17.07;11.57;;;0.80;99.90;;;;;;3571425;39;20262;-75
2021/04/07 05:43:39;;;;;;;22.87;16.20;;;0.80;99.90;;;;;;3567739;39;20738;-75
2021/04/07 05:46:05;;;;;;;18.13;12.47;;;0.90;99.90;;;;;;3567070;40;20591;-75
2021/04/07 05:48:31;;;;;;;26.60;17.03;;;0.80;99.90;;;;;;3577594;40;20396;-76
2021/04/07 05:50:57;;;;;;;18.00;12.23;;;0.90;99.90;;;;;;3574021;39;20449;-75
2021/04/07 05:53:23;;;;;;;18.60;13.13;;;0.90;99.90;;;;;;3566217;40;20234;-75
2021/04/07 05:55:51;;;;;;;13.70;8.40;;;0.90;99.90;;;;;;3567651;40;20234;-76
2021/04/07 05:58:17;;;;;;;19.80;11.90;;;0.90;99.90;;;;;;3576558;40;20520;-75
2021/04/07 06:00:44;;;;;;;17.10;10.83;;;0.90;99.90;;;;;;3559712;40;20688;-75
2021/04/07 06:03:11;;;;;;;29.03;16.10;;;0.90;99.90;;;;;;3575678;40;20441;-75
2021/04/07 06:05:38;;;;;;;19.90;12.43;;;0.90;99.90;;;;;;3576869;39;20433;-75
2021/04/07 06:08:04;;;;;;;15.20;9.50;;;0.80;99.90;;;;;;3571589;40;20437;-75
2021/04/07 06:10:32;;;;;;;20.33;11.37;;;0.90;99.90;;;;;;3565758;40;20419;-75
2021/04/07 06:12:59;;;;;;;22.20;13.33;;;0.90;99.90;;;;;;3565768;40;20408;-75
2021/04/07 06:15:26;;;;;;;27.53;14.17;;;0.90;99.90;;;;;;3568607;40;20551;-75
2021/04/07 06:20:20;;;;;;;11.63;8.50;;;0.90;99.90;;;;;;3578250;40;20378;-75
2021/04/07 06:22:45;;;;;;;9.27;5.57;;;0.90;99.90;;;;;;3576246;40;20413;-76
2021/04/07 06:25:12;;;;;;;24.47;14.57;;;0.90;99.90;;;;;;3577570;40;20392;-76
2021/04/07 06:27:38;;;;;;;18.60;12.00;;;0.90;99.90;;;;;;3579716;39;20316;-75
2021/04/07 06:30:07;;;;;;;17.37;11.20;;;0.90;99.90;;;;;;3579836;40;20413;-79
2021/04/07 06:32:33;;;;;;;9.47;6.80;;;0.90;99.90;;;;;;3575327;39;20661;-76
2021/04/07 06:34:58;;;;;;;18.23;13.00;;;0.90;99.90;;;;;;3587813;39;20440;-76
2021/04/07 06:37:24;;;;;;;24.20;14.90;;;0.90;99.90;;;;;;3571348;39;20596;-75
2021/04/07 06:39:50;;;;;;;16.37;11.03;;;1.00;99.90;;;;;;3589085;39;20306;-75
2021/04/07 06:42:17;;;;;;;22.90;15.63;;;1.00;99.90;;;;;;3578664;39;20228;-75
2021/04/07 06:44:43;;;;;;;17.00;11.37;;;1.00;99.90;;;;;;3583982;39;20243;-74
2021/04/07 06:47:09;;;;;;;18.83;13.07;;;1.00;99.90;;;;;;3585810;39;20770;-74
2021/04/07 06:49:35;;;;;;;17.50;11.70;;;1.10;99.90;;;;;;3575585;39;20810;-74
2021/04/07 06:52:04;;;;;;;18.07;11.27;;;1.10;99.90;;;;;;3577424;39;20391;-75
2021/04/07 06:54:33;;;;;;;21.77;14.23;;;1.10;99.90;;;;;;3586967;39;20448;-75
2021/04/07 06:56:59;;;;;;;9.60;8.70;;;1.10;99.90;;;;;;3578407;39;20535;-75
2021/04/07 06:59:25;;;;;;;12.90;8.93;;;1.20;99.90;;;;;;3576110;39;20380;-75
2021/04/07 07:01:52;;;;;;;17.87;10.20;;;1.10;99.90;;;;;;3568013;39;20280;-75
2021/04/07 07:04:18;;;;;;;19.43;14.43;;;1.20;99.90;;;;;;3579041;39;20812;-75
2021/04/07 07:06:46;;;;;;;13.67;9.00;;;1.20;99.90;;;;;;3571812;39;20452;-75
2021/04/07 07:09:18;;;;;;;18.70;11.57;;;1.20;99.90;;;;;;3577472;39;20319;-75
2021/04/07 07:11:51;;;;;;;22.37;14.37;;;1.20;99.90;;;;;;3588181;39;20418;-75
2021/04/07 07:14:18;;;;;;;19.23;12.03;;;1.20;99.90;;;;;;3578099;39;20748;-75
2021/04/07 07:16:48;;;;;;;11.27;7.40;;;1.30;99.90;;;;;;3568251;39;20555;-75
2021/04/07 07:19:47;;;;;;;22.27;12.67;;;1.30;99.90;;;;;;3586507;39;20456;-74
2021/04/07 07:22:21;;;;;;;18.67;10.87;;;1.40;99.90;;;;;;3576566;39;20369;-74
2021/04/07 07:24:50;;;;;;;12.27;10.23;;;1.40;99.90;;;;;;3578405;39;20844;-74
2021/04/07 07:27:16;;;;;;;14.93;10.00;;;1.50;99.90;;;;;;3576379;39;20522;-73
2021/04/07 07:29:42;;;;;;;11.00;8.53;;;1.40;99.90;;;;;;3576674;39;20918;-72
2021/04/07 07:32:11;;;;;;;9.13;6.80;;;1.40;99.90;;;;;;3584153;39;20226;-74
2021/04/07 07:34:37;;;;;;;14.20;8.83;;;1.40;99.90;;;;;;3584114;39;20229;-73
2021/04/07 07:37:04;;;;;;;8.13;6.40;;;1.40;99.90;;;;;;3569669;39;20397;-73
2021/04/07 07:39:33;;;;;;;11.63;9.20;;;1.40;99.90;;;;;;3586979;39;20467;-74
2021/04/07 07:42:08;;;;;;;9.53;6.80;;;1.40;99.90;;;;;;3585528;39;20433;-73
2021/04/07 07:44:36;;;;;;;9.47;7.27;;;1.40;99.90;;;;;;3584914;39;20552;-73
2021/04/07 07:47:28;;;;;;;7.73;6.30;;;1.50;99.90;;;;;;3580426;39;20381;-73
2021/04/07 07:50:02;;;;;;;7.70;5.33;;;1.50;99.90;;;;;;3576596;39;20391;-73
2021/04/07 07:52:33;;;;;;;5.40;4.90;;;1.60;99.90;;;;;;3584940;39;20366;-73
2021/04/07 07:55:11;;;;;;;6.77;5.60;;;1.50;99.90;;;;;;3585138;39;20380;-73
2021/04/07 07:57:37;;;;;;;7.50;5.60;;;1.40;99.90;;;;;;3585137;39;20386;-73
2021/04/07 08:00:09;;;;;;;10.07;6.00;;;1.40;99.90;;;;;;3577546;39;20417;-73
2021/04/07 08:02:38;;;;;;;5.90;5.27;;;1.40;99.90;;;;;;3586253;39;20228;-74
2021/04/07 08:05:14;;;;;;;8.20;6.43;;;1.40;99.90;;;;;;3571526;39;20407;-74
2021/04/07 08:07:40;;;;;;;11.30;9.07;;;1.40;99.90;;;;;;3584469;39;20375;-73
2021/04/07 08:10:06;;;;;;;11.80;8.50;;;1.40;99.90;;;;;;3576459;39;21108;-74
2021/04/07 08:12:33;;;;;;;10.30;8.20;;;1.50;99.90;;;;;;3566645;39;20222;-73
2021/04/07 08:15:01;;;;;;;9.40;7.43;;;1.50;99.90;;;;;;3583698;39;20417;-73
2021/04/07 08:17:29;;;;;;;10.93;8.47;;;1.50;99.90;;;;;;3584085;39;20836;-74
2021/04/07 08:19:56;;;;;;;14.60;6.83;;;1.50;99.90;;;;;;3569397;40;20422;-74
2021/04/07 08:22:23;;;;;;;12.03;10.13;;;1.50;99.90;;;;;;3573381;39;20445;-74
2021/04/07 08:24:51;;;;;;;10.33;8.90;;;1.60;99.90;;;;;;3573900;39;20375;-74
2021/04/07 08:27:20;;;;;;;9.27;7.30;;;1.60;99.90;;;;;;3573436;39;20415;-74
2021/04/07 08:29:45;;;;;;;10.00;7.23;;;1.60;99.90;;;;;;3572886;39;20507;-75
2021/04/07 08:32:11;;;;;;;7.27;5.27;;;1.70;99.90;;;;;;3576051;40;20764;-74
2021/04/07 08:34:38;;;;;;;12.10;5.77;;;1.80;99.90;;;;;;3582344;39;20241;-74
2021/04/07 08:37:04;;;;;;;10.67;8.23;;;1.90;99.90;;;;;;3567120;39;20285;-76
2021/04/07 08:39:29;;;;;;;10.90;8.47;;;1.80;99.90;;;;;;3573757;39;20466;-75
2021/04/07 08:41:58;;;;;;;9.87;8.83;;;1.80;99.90;;;;;;3573806;40;20316;-74
2021/04/07 08:44:23;;;;;;;12.57;9.43;;;1.70;99.90;;;;;;3570857;40;20257;-74
2021/04/07 08:46:53;;;;;;;14.07;7.50;;;1.80;99.90;;;;;;3575897;39;20419;-74
2021/04/07 08:50:00;;;;;;;11.63;7.80;;;1.90;99.90;;;;;;3575203;40;20237;-74
2021/04/07 08:52:26;;;;;;;9.33;5.83;;;1.90;99.90;;;;;;3570833;40;20404;-74
2021/04/07 08:54:56;;;;;;;12.30;9.67;;;1.90;99.90;;;;;;3581709;39;20423;-74
2021/04/07 08:57:36;;;;;;;11.80;9.87;;;2.00;99.90;;;;;;3574233;39;20470;-74
2021/04/07 09:00:15;;;;;;;16.33;7.37;;;2.10;99.90;;;;;;3573193;40;20447;-74
2021/04/07 09:02:51;;;;;;;8.40;6.90;;;2.10;99.90;;;;;;3575674;39;20404;-74
2021/04/07 09:05:30;;;;;;;11.70;7.43;;;2.10;99.90;;;;;;3575567;40;20394;-74
2021/04/07 09:07:57;;;;;;;15.10;9.67;;;2.10;99.90;;;;;;3576310;40;20379;-74
2021/04/07 09:10:23;;;;;;;9.57;7.00;;;2.30;99.90;;;;;;3573268;40;20444;-74
2021/04/07 09:12:51;;;;;;;9.13;6.53;;;2.40;99.90;;;;;;3575310;39;20372;-74
2021/04/07 09:15:16;;;;;;;8.83;7.03;;;2.30;99.90;;;;;;3582013;39;20438;-74
2021/04/07 09:17:52;;;;;;;13.87;9.33;;;2.40;99.90;;;;;;3575688;40;20792;-74
2021/04/07 09:20:37;;;;;;;12.43;8.67;;;2.60;99.90;;;;;;3564906;40;20648;-74
2021/04/07 09:23:28;;;;;;;12.60;8.07;;;2.80;99.90;;;;;;3568344;40;20801;-76
2021/04/07 09:26:05;;;;;;;7.60;6.50;;;2.90;99.90;;;;;;3566583;39;20387;-76
2021/04/07 09:28:48;;;;;;;12.60;8.93;;;2.90;99.90;;;;;;3575949;40;20413;-76
2021/04/07 09:31:25;;;;;;;11.63;7.37;;;3.00;99.90;;;;;;3563421;40;20428;-74
2021/04/07 09:33:56;;;;;;;15.23;9.90;;;3.00;99.90;;;;;;3559797;40;20739;-75
2021/04/07 09:36:36;;;;;;;12.90;8.30;;;2.90;99.90;;;;;;3560257;40;20399;-75
2021/04/07 09:39:06;;;;;;;18.77;9.73;;;2.90;99.90;;;;;;3574623;40;20405;-75
2021/04/07 09:41:35;;;;;;;17.40;12.07;;;2.90;99.90;;;;;;3574002;39;20390;-76
2021/04/07 09:44:02;;;;;;;15.30;11.43;;;2.90;99.90;;;;;;3567605;40;20727;-75
2021/04/07 09:46:28;;;;;;;17.73;11.73;;;3.00;99.90;;;;;;3566988;40;20378;-75
2021/04/07 09:48:57;;;;;;;20.97;14.80;;;3.10;99.90;;;;;;3567767;40;20732;-75
2021/04/07 09:51:27;;;;;;;21.87;13.20;;;3.10;99.90;;;;;;3576833;39;20431;-75
2021/04/07 09:54:05;;;;;;;16.77;12.53;;;2.90;99.90;;;;;;3578897;40;20437;-75
2021/04/07 09:56:31;;;;;;;13.50;8.77;;;3.00;99.90;;;;;;3564214;40;20405;-76
2021/04/07 09:58:57;;;;;;;17.13;12.10;;;2.80;99.90;;;;;;3559030;40;20976;-75
2021/04/07 10:01:25;;;;;;;14.63;10.70;;;2.90;99.90;;;;;;3575070;39;20248;-76
2021/04/07 10:03:53;;;;;;;16.90;12.03;;;2.90;99.90;;;;;;3576560;40;20419;-75
2021/04/07 10:06:23;;;;;;;16.67;10.57;;;2.80;99.90;;;;;;3577072;39;20406;-75
2021/04/07 10:09:10;;;;;;;14.50;7.93;;;2.70;99.90;;;;;;3576448;40;20379;-75
2021/04/07 10:11:41;;;;;;;24.53;15.60;;;2.70;99.90;;;;;;3575738;39;20388;-75
2021/04/07 10:14:09;;;;;;;13.20;10.60;;;2.80;99.90;;;;;;3576584;39;20376;-76
2021/04/07 10:16:39;;;;;;;25.40;11.13;;;2.90;99.90;;;;;;3570726;40;20947;-75
2021/04/07 10:19:09;;;;;;;19.33;12.63;;;2.90;99.90;;;;;;3572580;39;20464;-76
2021/04/07 10:21:36;;;;;;;18.57;14.13;;;2.90;99.90;;;;;;3576350;39;20419;-76
2021/04/07 10:24:04;;;;;;;14.93;10.83;;;3.00;99.90;;;;;;3585286;39;20359;-76
2021/04/07 10:26:29;;;;;;;12.37;8.97;;;3.00;99.90;;;;;;3578088;39;20452;-75
2021/04/07 10:29:00;;;;;;;17.60;13.53;;;3.10;99.90;;;;;;3582255;39;20864;-76
2021/04/07 10:31:27;;;;;;;13.10;9.40;;;3.10;99.90;;;;;;3585738;39;20291;-76
2021/04/07 10:34:09;;;;;;;15.00;9.73;;;3.40;99.90;;;;;;3588057;39;20493;-76
2021/04/07 10:36:39;;;;;;;14.83;9.33;;;3.20;99.90;;;;;;3584694;39;20469;-75
2021/04/07 10:39:12;;;;;;;14.63;11.47;;;3.20;99.90;;;;;;3587191;39;20502;-75
2021/04/07 10:41:39;;;;;;;9.43;7.57;;;3.50;99.90;;;;;;3585515;39;20415;-74
2021/04/07 10:44:06;;;;;;;16.43;11.37;;;4.20;99.90;;;;;;3576412;39;20667;-74
2021/04/07 10:46:32;;;;;;;17.97;13.10;;;3.30;99.90;;;;;;3578845;39;20943;-74
2021/04/07 10:48:59;;;;;;;18.67;12.47;;;3.10;99.90;;;;;;3586280;39;20383;-74
2021/04/07 10:51:26;;;;;;;17.37;12.87;;;3.50;99.90;;;;;;3578305;39;21629;-74
2021/04/07 10:53:59;;;;;;;17.50;13.50;;;3.50;99.90;;;;;;3570530;39;20681;-75
2021/04/07 10:56:27;;;;;;;14.03;9.23;;;3.60;99.90;;;;;;3577518;39;20490;-74
2021/04/07 10:59:00;;;;;;;20.77;14.67;;;3.70;99.90;;;;;;3583662;39;20414;-74
2021/04/07 11:01:30;;;;;;;16.17;12.30;;;3.80;99.90;;;;;;3585151;39;20380;-74
2021/04/07 11:03:57;;;;;;;17.20;12.83;;;3.90;99.90;;;;;;3586306;39;20478;-74
2021/04/07 11:06:24;;;;;;;18.57;12.47;;;4.00;99.90;;;;;;3577866;39;20403;-74
2021/04/07 11:08:53;;;;;;;17.20;12.73;;;4.20;99.90;;;;;;3577492;39;21834;-74
2021/04/07 11:11:25;;;;;;;14.80;11.50;;;4.50;99.90;;;;;;3587141;39;20774;-75
2021/04/07 11:13:52;;;;;;;20.67;13.07;;;4.50;99.90;;;;;;3577241;39;20387;-75
2021/04/07 11:16:18;;;;;;;18.60;15.30;;;4.60;99.90;;;;;;3577737;39;20810;-75
2021/04/07 11:18:44;;;;;;;20.10;14.93;;;4.70;99.90;;;;;;3576988;39;20578;-75
2021/04/07 11:21:11;;;;;;;18.03;12.43;;;4.90;99.90;;;;;;3584890;39;20650;-73
2021/04/07 11:23:37;;;;;;;25.57;13.87;;;5.00;99.90;;;;;;3587286;39;20407;-73
2021/04/07 11:26:07;;;;;;;13.07;9.60;;;4.90;99.90;;;;;;3587069;39;20843;-74
2021/04/07 11:28:32;;;;;;;12.13;8.27;;;4.30;99.90;;;;;;3579825;39;20435;-75
2021/04/07 11:33:36;;;;;;;10.77;8.03;;;3.00;99.90;;;;;;3591060;39;20640;-76
2021/04/07 11:46:35;;;;;;;11.23;4.70;;;3.00;99.90;;;;;;3569722;40;20955;-76
2021/04/07 11:49:01;;;;;;;4.13;3.63;;;2.90;99.90;;;;;;3573306;40;20551;-76
2021/04/07 11:51:26;;;;;;;6.83;3.30;;;2.90;99.90;;;;;;3559646;40;20437;-76
2021/04/07 11:53:54;;;;;;;10.20;3.47;;;2.80;99.90;;;;;;3568317;40;20412;-75
2021/04/07 11:56:19;;;;;;;7.47;3.30;;;2.90;99.90;;;;;;3569390;40;20328;-76
2021/04/07 11:58:45;;;;;;;4.83;2.93;;;2.90;99.90;;;;;;3567638;40;21321;-77
2021/04/07 12:01:11;;;;;;;4.63;3.03;;;3.40;99.90;;;;;;3561010;40;20274;-76
2021/04/07 12:03:37;;;;;;;6.07;2.67;;;3.10;99.90;;;;;;3560544;40;20234;-76
2021/04/07 12:06:04;;;;;;;4.93;1.93;;;3.30;99.90;;;;;;3570045;40;20600;-76
2021/04/07 12:08:30;;;;;;;2.50;2.30;;;3.50;99.90;;;;;;3568094;40;21284;-75
2021/04/07 12:11:00;;;;;;;6.83;2.87;;;3.40;99.90;;;;;;3571581;40;22859;-75
2021/04/07 12:13:26;;;;;;;4.10;2.70;;;3.40;99.90;;;;;;3568296;40;20361;-76
2021/04/07 12:15:52;;;;;;;7.80;3.90;;;3.50;99.90;;;;;;3580897;39;20375;-76
2021/04/07 12:18:18;;;;;;;8.67;4.00;;;3.60;99.90;;;;;;3576279;39;20686;-75
2021/04/07 12:20:44;;;;;;;4.10;3.77;;;3.60;99.90;;;;;;3587909;39;20771;-76
2021/04/07 12:23:10;;;;;;;6.43;4.00;;;3.60;99.90;;;;;;3572238;39;20351;-76
2021/04/07 12:25:36;;;;;;;12.03;3.00;;;3.60;99.90;;;;;;3587664;39;20825;-76
2021/04/07 12:28:02;;;;;;;7.57;3.60;;;3.60;99.90;;;;;;3579187;39;20443;-76
2021/04/07 12:30:27;;;;;;;5.00;3.93;;;3.50;99.90;;;;;;3581809;39;20233;-76
2021/04/07 12:32:53;;;;;;;3.60;2.23;;;3.70;99.90;;;;;;3573688;39;20668;-75
2021/04/07 12:35:19;;;;;;;5.60;2.60;;;4.00;99.90;;;;;;3576311;39;20253;-75
2021/04/07 12:37:45;;;;;;;10.40;3.07;;;4.10;99.90;;;;;;3588119;39;20406;-75
2021/04/07 12:40:12;;;;;;;6.90;2.50;;;4.10;99.90;;;;;;3570484;39;20468;-75
2021/04/07 12:42:38;;;;;;;19.43;7.03;;;4.10;99.90;;;;;;3578483;39;20225;-75
2021/04/07 12:45:05;;;;;;;4.07;1.90;;;4.00;99.90;;;;;;3579063;39;20414;-75
2021/04/07 12:47:31;;;;;;;4.53;2.77;;;3.90;99.90;;;;;;3580877;39;20575;-74
2021/04/07 12:49:57;;;;;;;9.90;3.57;;;3.70;99.90;;;;;;3584921;39;20523;-74
2021/04/07 12:52:22;;;;;;;5.70;2.80;;;3.70;99.90;;;;;;3570782;39;20248;-74
2021/04/07 12:55:07;;;;;;;5.73;2.60;;;3.80;99.90;;;;;;3577968;39;20299;-74
2021/04/07 12:57:32;;;;;;;3.97;2.50;;;4.00;99.90;;;;;;3585430;39;20246;-74
2021/04/07 12:59:59;;;;;;;5.87;2.80;;;4.30;99.90;;;;;;3577940;39;20798;-74
2021/04/07 13:02:25;;;;;;;8.90;3.03;;;4.40;99.90;;;;;;3578745;39;20224;-75
2021/04/07 13:04:51;;;;;;;8.07;2.90;;;4.60;99.90;;;;;;3566141;39;20918;-75